createdAt,value
2022-10-19T00:02:06.016Z,10.14
2022-10-19T00:07:08.783Z,9.93
2022-10-19T00:12:13.838Z,9.39
2022-10-19T00:17:16.785Z,9.63
2022-10-19T00:22:19.540Z,9.30
2022-10-19T00:27:22.522Z,10.08
2022-10-19T00:32:25.336Z,10.07
2022-10-19T00:37:30.900Z,9.70
2022-10-19T00:42:34.962Z,9.70
2022-10-19T00:54:39.276Z,10.27
2022-10-19T00:59:45.592Z,9.70
2022-10-19T01:04:52.757Z,9.67
2022-10-19T01:09:56.284Z,8.67
2022-10-19T01:14:59.998Z,9.78
2022-10-19T01:26:57.993Z,9.63
2022-10-19T01:57:52.163Z,9.74
2022-10-19T02:02:56.120Z,9.48
2022-10-19T02:08:02.141Z,9.90
2022-10-19T02:13:08.086Z,9.88
2022-10-19T02:18:13.413Z,9.99
2022-10-19T02:23:20.067Z,9.77
2022-10-19T02:33:56.959Z,9.12
2022-10-19T02:38:59.988Z,9.60
2022-10-19T02:44:08.527Z,9.62
2022-10-19T02:49:38.746Z,9.33
2022-10-19T03:01:33.705Z,10.11
2022-10-19T03:06:36.401Z,9.55
2022-10-19T03:11:39.308Z,9.91
2022-10-19T03:16:42.019Z,9.41
2022-10-19T03:21:44.887Z,9.86
2022-10-19T03:26:47.822Z,9.42
2022-10-19T03:31:50.776Z,8.94
2022-10-19T03:37:03.475Z,8.71
2022-10-19T03:42:06.188Z,9.37
2022-10-19T03:47:09.017Z,8.68
2022-10-19T03:52:11.766Z,8.73
2022-10-19T04:04:20.474Z,9.93
2022-10-19T04:09:48.093Z,9.25
2022-10-19T04:14:57.412Z,9.69
2022-10-19T04:20:26.315Z,9.16
2022-10-19T04:25:28.996Z,9.25
2022-10-19T04:30:31.977Z,9.57
2022-10-19T04:35:34.917Z,8.96
2022-10-19T04:40:38.464Z,9.36
2022-10-19T04:45:46.299Z,9.32
2022-10-19T04:50:49.260Z,8.87
2022-10-19T04:55:52.056Z,8.59
2022-10-19T05:00:54.986Z,7.64
2022-10-19T05:06:00.716Z,9.12
2022-10-19T05:17:57.664Z,9.63
2022-10-19T05:23:04.699Z,9.14
2022-10-19T05:28:36.274Z,8.32
2022-10-19T05:33:40.256Z,9.15
2022-10-19T05:38:45.703Z,9.57
2022-10-19T05:43:53.132Z,9.50
2022-10-19T05:48:57.333Z,9.72
2022-10-19T05:54:00.418Z,9.41
2022-10-19T05:59:07.164Z,9.57
2022-10-19T06:04:11.862Z,10.02
2022-10-19T06:09:14.683Z,10.19
2022-10-19T06:14:17.439Z,9.76
2022-10-19T06:19:20.340Z,10.82
2022-10-19T06:24:23.256Z,10.90
2022-10-19T06:36:22.261Z,10.87
2022-10-19T06:41:25.258Z,12.02
2022-10-19T06:46:28.173Z,12.12
2022-10-19T06:51:33.091Z,12.88
2022-10-19T06:56:36.333Z,13.27
2022-10-19T07:01:39.301Z,13.01
2022-10-19T07:06:42.356Z,12.63
2022-10-19T07:11:46.253Z,13.66
2022-10-19T07:23:44.269Z,15.70
2022-10-19T08:31:47.432Z,19.09
2022-10-19T08:36:51.473Z,19.19
2022-10-19T08:48:45.976Z,19.91
2022-10-19T08:54:01.491Z,20.53
2022-10-19T09:05:58.601Z,21.95
2022-10-19T09:11:02.560Z,21.62
2022-10-19T09:16:06.945Z,22.43
2022-10-19T09:21:33.411Z,22.98
2022-10-19T09:40:30.199Z,22.97
2022-10-19T09:56:56.270Z,23.32
2022-10-19T10:02:16.163Z,23.13
2022-10-19T10:07:20.094Z,23.42
2022-10-19T10:12:31.136Z,24.19
2022-10-19T10:17:37.579Z,23.30
2022-10-19T10:22:53.274Z,23.00
2022-10-19T10:28:03.391Z,24.07
2022-10-19T10:33:21.106Z,23.17
2022-10-19T10:38:38.413Z,22.59
2022-10-19T10:43:57.583Z,23.76
2022-10-19T10:49:09.258Z,23.58
2022-10-19T10:54:33.928Z,24.04
2022-10-19T10:59:45.700Z,22.64
2022-10-19T11:05:00.554Z,23.82
2022-10-19T11:10:38.296Z,23.78
2022-10-19T11:15:58.289Z,23.67
2022-10-19T11:21:08.297Z,23.53
2022-10-19T11:26:17.542Z,23.81
2022-10-19T11:31:37.714Z,23.73
2022-10-19T11:36:52.949Z,24.01
2022-10-19T11:42:38.404Z,22.77
2022-10-19T11:48:07.102Z,24.15
2022-10-19T11:53:23.032Z,24.18
2022-10-19T11:58:42.763Z,23.08
2022-10-19T12:04:15.769Z,23.41
2022-10-19T12:09:48.899Z,24.10
2022-10-19T12:14:57.888Z,23.39
2022-10-19T12:20:08.160Z,24.16
2022-10-19T12:25:15.594Z,23.86
2022-10-19T12:30:24.784Z,23.98
2022-10-19T12:35:28.524Z,23.95
2022-10-19T12:40:44.747Z,23.67
2022-10-19T12:45:52.859Z,23.94
2022-10-19T12:50:58.456Z,23.81
2022-10-19T12:56:11.591Z,23.83
2022-10-19T13:01:22.889Z,23.69
2022-10-19T13:06:26.316Z,23.63
2022-10-19T13:11:29.867Z,22.31
2022-10-19T13:16:41.083Z,23.51
2022-10-19T13:21:48.666Z,23.44
2022-10-19T13:27:04.342Z,23.30
2022-10-19T13:32:38.237Z,23.22
2022-10-19T13:37:42.011Z,22.87
2022-10-19T13:42:59.405Z,22.68
2022-10-19T13:48:22.562Z,21.77
2022-10-19T13:54:21.702Z,22.95
2022-10-19T13:59:42.045Z,22.99
2022-10-19T14:05:06.741Z,23.05
2022-10-19T14:10:18.115Z,23.10
2022-10-19T14:15:36.073Z,22.69
2022-10-19T14:20:43.912Z,21.99
2022-10-19T14:26:14.484Z,22.31
2022-10-19T14:31:21.270Z,22.32
2022-10-19T14:36:28.952Z,22.43
2022-10-19T14:41:36.710Z,22.75
2022-10-19T14:46:40.146Z,22.66
2022-10-19T14:51:58.157Z,22.42
2022-10-19T14:57:36.331Z,22.17
2022-10-19T15:02:51.288Z,22.33
2022-10-19T15:07:55.926Z,21.73
2022-10-19T15:13:05.347Z,22.21
2022-10-19T15:18:43.536Z,21.91
2022-10-19T15:23:48.448Z,20.64
2022-10-19T15:28:54.530Z,20.87
2022-10-19T15:34:03.489Z,21.99
2022-10-19T15:39:25.157Z,21.61
2022-10-19T15:44:44.729Z,21.03
2022-10-19T15:49:57.674Z,19.64
2022-10-19T15:55:02.469Z,21.04
2022-10-19T16:00:17.528Z,20.79
2022-10-19T16:05:21.858Z,19.23
2022-10-19T16:10:27.632Z,18.90
2022-10-19T16:15:31.067Z,19.09
2022-10-19T16:20:35.393Z,19.60
2022-10-19T16:25:39.325Z,18.92
2022-10-19T16:30:42.781Z,18.65
2022-10-19T16:35:46.408Z,18.76
2022-10-19T16:40:50.039Z,18.64
2022-10-19T16:45:54.128Z,18.47
2022-10-19T16:51:07.070Z,19.06
2022-10-19T17:01:21.862Z,18.64
2022-10-19T17:06:28.256Z,18.52
2022-10-19T17:11:34.251Z,18.48
2022-10-19T17:16:41.964Z,18.67
2022-10-19T17:21:45.486Z,18.55
2022-10-19T17:26:52.586Z,18.52
2022-10-19T17:32:01.545Z,18.04
2022-10-19T17:37:05.607Z,18.39
2022-10-19T17:42:10.774Z,18.11
2022-10-19T17:47:19.234Z,18.23
2022-10-19T17:52:23.126Z,18.10
2022-10-19T17:57:27.098Z,17.90
2022-10-19T18:02:29.943Z,17.28
2022-10-19T18:07:34.135Z,17.84
2022-10-19T18:12:36.969Z,17.97
2022-10-19T18:17:40.053Z,17.91
2022-10-19T18:27:50.705Z,17.41
2022-10-19T18:32:54.311Z,17.83
2022-10-19T18:37:57.183Z,17.68
2022-10-19T18:42:59.939Z,17.29
2022-10-19T18:48:03.787Z,17.78
2022-10-19T18:53:06.545Z,17.29
2022-10-19T18:58:10.476Z,17.68
2022-10-19T19:03:13.321Z,16.98
2022-10-19T19:08:16.866Z,17.77
2022-10-19T19:13:19.601Z,17.13
2022-10-19T19:18:23.673Z,17.58
2022-10-19T19:23:26.417Z,17.52
2022-10-19T19:28:29.675Z,17.23
2022-10-19T19:33:32.862Z,17.15
2022-10-19T19:38:37.216Z,17.08
2022-10-19T19:43:40.570Z,17.38
2022-10-19T19:48:47.883Z,17.05
2022-10-19T19:53:50.643Z,16.40
2022-10-19T19:58:58.255Z,16.55
2022-10-19T20:09:11.715Z,16.18
2022-10-19T20:14:14.709Z,16.25
2022-10-19T20:19:18.178Z,16.23
2022-10-19T20:24:21.127Z,15.89
2022-10-19T20:29:24.196Z,15.83
2022-10-19T20:34:27.117Z,15.72
2022-10-19T20:39:30.213Z,15.41
2022-10-19T20:44:32.996Z,14.92
2022-10-19T20:49:36.270Z,14.77
2022-10-19T20:54:39.386Z,15.09
2022-10-19T20:59:42.118Z,14.63
2022-10-19T21:04:45.646Z,14.29
2022-10-19T21:09:48.761Z,14.19
2022-10-19T21:14:51.434Z,14.34
2022-10-19T21:19:57.214Z,14.02
2022-10-19T21:25:00.766Z,13.54
2022-10-19T21:30:04.127Z,13.46
2022-10-19T21:35:07.791Z,13.51
2022-10-19T21:40:11.064Z,13.32
2022-10-19T21:45:30.731Z,13.10
2022-10-19T21:50:33.853Z,12.58
2022-10-19T21:55:39.504Z,12.86
2022-10-19T22:00:42.705Z,12.20
2022-10-19T22:05:53.096Z,13.32
2022-10-19T22:10:55.957Z,13.37
2022-10-19T22:16:04.722Z,13.24
2022-10-19T22:21:11.135Z,13.55
2022-10-19T22:26:16.301Z,14.14
2022-10-19T22:31:19.659Z,15.23
2022-10-19T22:36:22.788Z,14.88
2022-10-19T22:41:28.238Z,15.51
2022-10-19T22:46:31.503Z,15.09
2022-10-19T22:51:34.612Z,15.49
2022-10-19T22:56:38.541Z,15.58
2022-10-19T23:01:51.408Z,14.48
2022-10-19T23:06:54.365Z,15.20
2022-10-19T23:11:57.047Z,15.66
2022-10-19T23:17:00.023Z,15.35
2022-10-19T23:22:03.064Z,15.61
2022-10-19T23:27:05.851Z,14.41
2022-10-19T23:32:08.776Z,15.60
2022-10-19T23:37:11.645Z,14.97
2022-10-19T23:42:14.678Z,15.77
2022-10-19T23:47:17.510Z,15.60
2022-10-19T23:52:20.252Z,15.66
2022-10-19T23:57:23.170Z,14.97
